sensor_id;sensor_type;location;lat;lon;timestamp;P1;durP1;ratioP1;P2;durP2;ratioP2
11100;SDS011;5604;50.722;7.078;2023-01-16T00:02:16;2.20;;;1.47;;
11100;SDS011;5604;50.722;7.078;2023-01-16T00:04:45;3.00;;;1.23;;
11100;SDS011;5604;50.722;7.078;2023-01-16T00:07:13;2.50;;;1.53;;
11100;SDS011;5604;50.722;7.078;2023-01-16T00:09:42;3.27;;;1.43;;
11100;SDS011;5604;50.722;7.078;2023-01-16T00:12:11;1.70;;;1.40;;
11100;SDS011;5604;50.722;7.078;2023-01-16T00:14:39;2.47;;;1.20;;
11100;SDS011;5604;50.722;7.078;2023-01-16T00:17:09;2.23;;;1.30;;
11100;SDS011;5604;50.722;7.078;2023-01-16T00:19:38;2.73;;;1.30;;
11100;SDS011;5604;50.722;7.078;2023-01-16T00:22:06;3.13;;;1.50;;
11100;SDS011;5604;50.722;7.078;2023-01-16T00:24:34;2.23;;;1.47;;
11100;SDS011;5604;50.722;7.078;2023-01-16T00:27:03;2.30;;;1.30;;
11100;SDS011;5604;50.722;7.078;2023-01-16T00:29:32;5.03;;;1.43;;
11100;SDS011;5604;50.722;7.078;2023-01-16T00:32:00;3.60;;;1.47;;
11100;SDS011;5604;50.722;7.078;2023-01-16T00:34:30;3.57;;;1.50;;
11100;SDS011;5604;50.722;7.078;2023-01-16T00:36:58;3.07;;;1.10;;
11100;SDS011;5604;50.722;7.078;2023-01-16T00:39:26;2.83;;;1.10;;
11100;SDS011;5604;50.722;7.078;2023-01-16T00:41:55;2.90;;;1.33;;
11100;SDS011;5604;50.722;7.078;2023-01-16T00:44:23;3.00;;;1.33;;
11100;SDS011;5604;50.722;7.078;2023-01-16T00:46:52;1.30;;;1.20;;
11100;SDS011;5604;50.722;7.078;2023-01-16T00:49:20;3.57;;;1.27;;
11100;SDS011;5604;50.722;7.078;2023-01-16T00:51:50;2.87;;;1.57;;
11100;SDS011;5604;50.722;7.078;2023-01-16T00:54:19;2.13;;;1.30;;
11100;SDS011;5604;50.722;7.078;2023-01-16T00:56:47;6.30;;;1.53;;
11100;SDS011;5604;50.722;7.078;2023-01-16T00:59:16;3.47;;;1.70;;
11100;SDS011;5604;50.722;7.078;2023-01-16T01:01:44;2.00;;;1.07;;
11100;SDS011;5604;50.722;7.078;2023-01-16T01:04:13;2.30;;;1.40;;
11100;SDS011;5604;50.722;7.078;2023-01-16T01:06:41;1.57;;;1.30;;
11100;SDS011;5604;50.722;7.078;2023-01-16T01:09:11;3.13;;;0.97;;
11100;SDS011;5604;50.722;7.078;2023-01-16T01:11:39;2.20;;;1.20;;
11100;SDS011;5604;50.722;7.078;2023-01-16T01:14:08;1.37;;;1.07;;
11100;SDS011;5604;50.722;7.078;2023-01-16T01:16:36;2.77;;;1.13;;
11100;SDS011;5604;50.722;7.078;2023-01-16T01:19:06;1.50;;;1.10;;
11100;SDS011;5604;50.722;7.078;2023-01-16T01:21:35;2.10;;;1.50;;
11100;SDS011;5604;50.722;7.078;2023-01-16T01:24:04;2.43;;;1.23;;
11100;SDS011;5604;50.722;7.078;2023-01-16T01:26:34;3.53;;;1.10;;
11100;SDS011;5604;50.722;7.078;2023-01-16T01:29:02;2.37;;;1.20;;
11100;SDS011;5604;50.722;7.078;2023-01-16T01:31:31;2.03;;;1.27;;
11100;SDS011;5604;50.722;7.078;2023-01-16T01:33:59;1.87;;;1.20;;
11100;SDS011;5604;50.722;7.078;2023-01-16T01:36:27;2.50;;;1.33;;
11100;SDS011;5604;50.722;7.078;2023-01-16T01:38:56;1.90;;;1.40;;
11100;SDS011;5604;50.722;7.078;2023-01-16T01:41:24;1.47;;;1.10;;
11100;SDS011;5604;50.722;7.078;2023-01-16T01:43:54;1.53;;;1.00;;
11100;SDS011;5604;50.722;7.078;2023-01-16T01:46:25;2.27;;;0.90;;
11100;SDS011;5604;50.722;7.078;2023-01-16T01:48:56;1.53;;;1.00;;
11100;SDS011;5604;50.722;7.078;2023-01-16T01:51:27;1.87;;;1.10;;
11100;SDS011;5604;50.722;7.078;2023-01-16T01:53:57;1.47;;;1.10;;
11100;SDS011;5604;50.722;7.078;2023-01-16T01:56:28;1.10;;;1.00;;
11100;SDS011;5604;50.722;7.078;2023-01-16T01:59:00;1.83;;;1.00;;
11100;SDS011;5604;50.722;7.078;2023-01-16T02:01:30;2.87;;;1.40;;
11100;SDS011;5604;50.722;7.078;2023-01-16T02:04:00;3.23;;;0.90;;
11100;SDS011;5604;50.722;7.078;2023-01-16T02:06:30;2.40;;;1.30;;
11100;SDS011;5604;50.722;7.078;2023-01-16T02:09:03;2.57;;;1.00;;
11100;SDS011;5604;50.722;7.078;2023-01-16T02:11:33;1.67;;;1.10;;
11100;SDS011;5604;50.722;7.078;2023-01-16T02:14:05;3.80;;;1.10;;
11100;SDS011;5604;50.722;7.078;2023-01-16T02:16:35;3.23;;;1.60;;
11100;SDS011;5604;50.722;7.078;2023-01-16T02:19:24;3.80;;;1.20;;
11100;SDS011;5604;50.722;7.078;2023-01-16T02:22:05;1.40;;;1.13;;
11100;SDS011;5604;50.722;7.078;2023-01-16T02:25:02;2.57;;;1.50;;
11100;SDS011;5604;50.722;7.078;2023-01-16T02:27:44;4.73;;;1.37;;
11100;SDS011;5604;50.722;7.078;2023-01-16T02:30:30;2.63;;;1.43;;
11100;SDS011;5604;50.722;7.078;2023-01-16T02:33:10;1.50;;;1.20;;
11100;SDS011;5604;50.722;7.078;2023-01-16T02:35:45;3.73;;;1.40;;
11100;SDS011;5604;50.722;7.078;2023-01-16T02:38:21;3.90;;;1.40;;
11100;SDS011;5604;50.722;7.078;2023-01-16T02:40:55;1.40;;;1.27;;
11100;SDS011;5604;50.722;7.078;2023-01-16T02:43:31;5.20;;;1.40;;
11100;SDS011;5604;50.722;7.078;2023-01-16T02:46:05;3.87;;;1.30;;
11100;SDS011;5604;50.722;7.078;2023-01-16T02:48:39;1.73;;;1.10;;
11100;SDS011;5604;50.722;7.078;2023-01-16T02:51:14;3.63;;;1.40;;
11100;SDS011;5604;50.722;7.078;2023-01-16T02:53:52;4.37;;;1.37;;
11100;SDS011;5604;50.722;7.078;2023-01-16T02:56:27;3.70;;;1.43;;
11100;SDS011;5604;50.722;7.078;2023-01-16T02:58:58;2.63;;;1.30;;
11100;SDS011;5604;50.722;7.078;2023-01-16T03:01:27;4.27;;;1.63;;
11100;SDS011;5604;50.722;7.078;2023-01-16T03:07:05;2.23;;;1.30;;
11100;SDS011;5604;50.722;7.078;2023-01-16T03:09:43;4.17;;;1.93;;
11100;SDS011;5604;50.722;7.078;2023-01-16T03:12:20;3.97;;;1.43;;
11100;SDS011;5604;50.722;7.078;2023-01-16T03:14:55;4.60;;;1.60;;
11100;SDS011;5604;50.722;7.078;2023-01-16T03:17:28;3.10;;;1.70;;
11100;SDS011;5604;50.722;7.078;2023-01-16T03:20:16;4.43;;;1.60;;
11100;SDS011;5604;50.722;7.078;2023-01-16T03:22:54;3.27;;;1.50;;
11100;SDS011;5604;50.722;7.078;2023-01-16T03:25:32;2.27;;;1.53;;
11100;SDS011;5604;50.722;7.078;2023-01-16T03:28:06;2.10;;;1.40;;
11100;SDS011;5604;50.722;7.078;2023-01-16T03:30:39;3.23;;;1.93;;
11100;SDS011;5604;50.722;7.078;2023-01-16T03:33:16;4.30;;;1.50;;
11100;SDS011;5604;50.722;7.078;2023-01-16T03:35:50;2.40;;;1.53;;
11100;SDS011;5604;50.722;7.078;2023-01-16T03:38:24;3.80;;;1.50;;
11100;SDS011;5604;50.722;7.078;2023-01-16T03:40:54;3.07;;;1.67;;
11100;SDS011;5604;50.722;7.078;2023-01-16T03:43:26;1.77;;;1.20;;
11100;SDS011;5604;50.722;7.078;2023-01-16T03:45:57;2.37;;;1.33;;
11100;SDS011;5604;50.722;7.078;2023-01-16T03:48:27;1.37;;;1.27;;
11100;SDS011;5604;50.722;7.078;2023-01-16T03:50:59;1.67;;;1.37;;
11100;SDS011;5604;50.722;7.078;2023-01-16T03:53:32;3.87;;;1.40;;
11100;SDS011;5604;50.722;7.078;2023-01-16T03:56:05;3.87;;;1.30;;
11100;SDS011;5604;50.722;7.078;2023-01-16T03:58:50;4.10;;;1.30;;
11100;SDS011;5604;50.722;7.078;2023-01-16T04:01:22;3.67;;;1.47;;
11100;SDS011;5604;50.722;7.078;2023-01-16T04:03:54;3.07;;;1.50;;
11100;SDS011;5604;50.722;7.078;2023-01-16T04:06:29;3.43;;;1.50;;
11100;SDS011;5604;50.722;7.078;2023-01-16T04:09:03;2.60;;;1.20;;
11100;SDS011;5604;50.722;7.078;2023-01-16T04:11:33;2.43;;;1.40;;
11100;SDS011;5604;50.722;7.078;2023-01-16T04:14:03;1.83;;;1.10;;
11100;SDS011;5604;50.722;7.078;2023-01-16T04:16:50;3.20;;;2.03;;
11100;SDS011;5604;50.722;7.078;2023-01-16T04:19:19;2.67;;;1.40;;
11100;SDS011;5604;50.722;7.078;2023-01-16T04:21:49;3.60;;;1.20;;
11100;SDS011;5604;50.722;7.078;2023-01-16T04:24:19;2.30;;;1.20;;
11100;SDS011;5604;50.722;7.078;2023-01-16T04:26:47;2.20;;;1.50;;
11100;SDS011;5604;50.722;7.078;2023-01-16T04:29:17;1.33;;;1.23;;
11100;SDS011;5604;50.722;7.078;2023-01-16T04:31:46;2.10;;;1.53;;
11100;SDS011;5604;50.722;7.078;2023-01-16T04:34:14;2.60;;;1.30;;
11100;SDS011;5604;50.722;7.078;2023-01-16T04:36:43;2.47;;;1.30;;
11100;SDS011;5604;50.722;7.078;2023-01-16T04:39:11;2.57;;;1.60;;
11100;SDS011;5604;50.722;7.078;2023-01-16T04:41:41;2.23;;;1.20;;
11100;SDS011;5604;50.722;7.078;2023-01-16T04:44:09;2.50;;;1.20;;
11100;SDS011;5604;50.722;7.078;2023-01-16T04:46:39;2.40;;;1.07;;
11100;SDS011;5604;50.722;7.078;2023-01-16T04:49:07;3.23;;;1.30;;
11100;SDS011;5604;50.722;7.078;2023-01-16T04:51:36;2.27;;;1.20;;
11100;SDS011;5604;50.722;7.078;2023-01-16T04:54:05;0.90;;;0.83;;
11100;SDS011;5604;50.722;7.078;2023-01-16T04:56:34;2.27;;;1.30;;
11100;SDS011;5604;50.722;7.078;2023-01-16T04:59:05;2.33;;;1.37;;
11100;SDS011;5604;50.722;7.078;2023-01-16T05:01:33;2.47;;;1.03;;
11100;SDS011;5604;50.722;7.078;2023-01-16T05:04:03;1.70;;;1.37;;
11100;SDS011;5604;50.722;7.078;2023-01-16T05:06:32;2.30;;;1.40;;
11100;SDS011;5604;50.722;7.078;2023-01-16T05:09:01;4.70;;;1.40;;
11100;SDS011;5604;50.722;7.078;2023-01-16T05:11:31;1.73;;;1.23;;
11100;SDS011;5604;50.722;7.078;2023-01-16T05:13:59;3.27;;;1.43;;
11100;SDS011;5604;50.722;7.078;2023-01-16T05:16:29;1.53;;;0.90;;
11100;SDS011;5604;50.722;7.078;2023-01-16T05:18:58;3.40;;;1.33;;
11100;SDS011;5604;50.722;7.078;2023-01-16T05:21:26;3.07;;;1.10;;
11100;SDS011;5604;50.722;7.078;2023-01-16T05:23:54;2.80;;;1.20;;
11100;SDS011;5604;50.722;7.078;2023-01-16T05:26:23;2.33;;;1.20;;
11100;SDS011;5604;50.722;7.078;2023-01-16T05:28:51;1.23;;;0.90;;
11100;SDS011;5604;50.722;7.078;2023-01-16T05:31:20;1.67;;;1.10;;
11100;SDS011;5604;50.722;7.078;2023-01-16T05:33:49;2.80;;;1.30;;
11100;SDS011;5604;50.722;7.078;2023-01-16T05:36:18;2.13;;;1.50;;
11100;SDS011;5604;50.722;7.078;2023-01-16T05:38:46;4.83;;;1.23;;
11100;SDS011;5604;50.722;7.078;2023-01-16T05:41:14;1.23;;;1.13;;
11100;SDS011;5604;50.722;7.078;2023-01-16T05:43:43;2.27;;;1.33;;
11100;SDS011;5604;50.722;7.078;2023-01-16T05:46:11;2.73;;;1.47;;
11100;SDS011;5604;50.722;7.078;2023-01-16T05:48:40;2.80;;;1.40;;
11100;SDS011;5604;50.722;7.078;2023-01-16T05:51:09;2.90;;;1.40;;
11100;SDS011;5604;50.722;7.078;2023-01-16T05:53:39;2.87;;;1.27;;
11100;SDS011;5604;50.722;7.078;2023-01-16T05:56:07;3.63;;;1.30;;
11100;SDS011;5604;50.722;7.078;2023-01-16T05:58:37;1.73;;;1.10;;
11100;SDS011;5604;50.722;7.078;2023-01-16T06:01:05;1.97;;;1.20;;
11100;SDS011;5604;50.722;7.078;2023-01-16T06:03:33;2.40;;;1.07;;
11100;SDS011;5604;50.722;7.078;2023-01-16T06:06:02;2.20;;;1.10;;
11100;SDS011;5604;50.722;7.078;2023-01-16T06:08:31;2.57;;;1.20;;
11100;SDS011;5604;50.722;7.078;2023-01-16T06:11:00;3.37;;;1.70;;
11100;SDS011;5604;50.722;7.078;2023-01-16T06:13:28;2.93;;;1.17;;
11100;SDS011;5604;50.722;7.078;2023-01-16T06:15:56;2.53;;;1.50;;
11100;SDS011;5604;50.722;7.078;2023-01-16T06:18:24;4.40;;;1.30;;
11100;SDS011;5604;50.722;7.078;2023-01-16T06:20:53;3.00;;;1.57;;
11100;SDS011;5604;50.722;7.078;2023-01-16T06:23:21;3.07;;;1.20;;
11100;SDS011;5604;50.722;7.078;2023-01-16T06:25:51;1.50;;;1.40;;
11100;SDS011;5604;50.722;7.078;2023-01-16T06:28:19;1.20;;;1.20;;
11100;SDS011;5604;50.722;7.078;2023-01-16T06:30:49;4.90;;;1.73;;
11100;SDS011;5604;50.722;7.078;2023-01-16T06:33:19;2.03;;;1.70;;
11100;SDS011;5604;50.722;7.078;2023-01-16T06:35:47;3.87;;;1.57;;
11100;SDS011;5604;50.722;7.078;2023-01-16T06:38:16;2.70;;;1.80;;
11100;SDS011;5604;50.722;7.078;2023-01-16T06:40:44;3.57;;;1.80;;
11100;SDS011;5604;50.722;7.078;2023-01-16T06:43:14;2.57;;;1.60;;
11100;SDS011;5604;50.722;7.078;2023-01-16T06:45:43;2.27;;;1.63;;
11100;SDS011;5604;50.722;7.078;2023-01-16T06:48:12;2.03;;;1.50;;
11100;SDS011;5604;50.722;7.078;2023-01-16T06:50:40;1.90;;;1.70;;
11100;SDS011;5604;50.722;7.078;2023-01-16T06:53:08;4.57;;;1.97;;
11100;SDS011;5604;50.722;7.078;2023-01-16T06:55:36;3.23;;;1.77;;
11100;SDS011;5604;50.722;7.078;2023-01-16T06:58:05;2.60;;;1.90;;
11100;SDS011;5604;50.722;7.078;2023-01-16T07:00:35;2.03;;;1.20;;
11100;SDS011;5604;50.722;7.078;2023-01-16T07:03:03;3.87;;;1.50;;
11100;SDS011;5604;50.722;7.078;2023-01-16T07:05:32;3.20;;;1.80;;
11100;SDS011;5604;50.722;7.078;2023-01-16T07:08:00;1.83;;;1.53;;
11100;SDS011;5604;50.722;7.078;2023-01-16T07:10:29;3.17;;;1.77;;
11100;SDS011;5604;50.722;7.078;2023-01-16T07:12:59;3.73;;;1.57;;
11100;SDS011;5604;50.722;7.078;2023-01-16T07:15:27;4.00;;;1.50;;
11100;SDS011;5604;50.722;7.078;2023-01-16T07:18:15;2.90;;;1.80;;
11100;SDS011;5604;50.722;7.078;2023-01-16T07:21:02;2.90;;;1.50;;
11100;SDS011;5604;50.722;7.078;2023-01-16T07:23:49;2.93;;;1.50;;
11100;SDS011;5604;50.722;7.078;2023-01-16T07:26:21;3.10;;;1.60;;
11100;SDS011;5604;50.722;7.078;2023-01-16T07:28:50;3.43;;;1.70;;
11100;SDS011;5604;50.722;7.078;2023-01-16T07:31:19;4.53;;;1.40;;
11100;SDS011;5604;50.722;7.078;2023-01-16T07:33:48;2.33;;;1.30;;
11100;SDS011;5604;50.722;7.078;2023-01-16T07:36:17;3.87;;;1.30;;
11100;SDS011;5604;50.722;7.078;2023-01-16T07:38:46;3.90;;;1.77;;
11100;SDS011;5604;50.722;7.078;2023-01-16T07:41:14;2.50;;;1.50;;
11100;SDS011;5604;50.722;7.078;2023-01-16T07:43:43;3.77;;;1.50;;
11100;SDS011;5604;50.722;7.078;2023-01-16T07:46:11;5.47;;;1.97;;
11100;SDS011;5604;50.722;7.078;2023-01-16T07:48:40;2.57;;;1.47;;
11100;SDS011;5604;50.722;7.078;2023-01-16T07:51:09;3.73;;;1.47;;
11100;SDS011;5604;50.722;7.078;2023-01-16T07:53:38;2.97;;;1.60;;
11100;SDS011;5604;50.722;7.078;2023-01-16T07:56:07;5.77;;;1.80;;
11100;SDS011;5604;50.722;7.078;2023-01-16T07:58:35;5.30;;;1.97;;
11100;SDS011;5604;50.722;7.078;2023-01-16T08:01:06;4.30;;;1.50;;
11100;SDS011;5604;50.722;7.078;2023-01-16T08:03:34;5.23;;;1.83;;
11100;SDS011;5604;50.722;7.078;2023-01-16T08:06:03;4.30;;;1.50;;
11100;SDS011;5604;50.722;7.078;2023-01-16T08:08:33;4.63;;;1.50;;
11100;SDS011;5604;50.722;7.078;2023-01-16T08:11:01;2.90;;;1.43;;
11100;SDS011;5604;50.722;7.078;2023-01-16T08:13:51;3.60;;;1.40;;
11100;SDS011;5604;50.722;7.078;2023-01-16T08:16:20;6.27;;;1.60;;
11100;SDS011;5604;50.722;7.078;2023-01-16T08:18:48;3.83;;;1.97;;
11100;SDS011;5604;50.722;7.078;2023-01-16T08:21:16;6.83;;;1.70;;
11100;SDS011;5604;50.722;7.078;2023-01-16T08:23:46;1.77;;;1.30;;
11100;SDS011;5604;50.722;7.078;2023-01-16T08:26:15;4.43;;;1.60;;
11100;SDS011;5604;50.722;7.078;2023-01-16T08:28:43;3.40;;;1.30;;
11100;SDS011;5604;50.722;7.078;2023-01-16T08:31:13;1.80;;;1.47;;
11100;SDS011;5604;50.722;7.078;2023-01-16T08:33:42;2.97;;;1.30;;
11100;SDS011;5604;50.722;7.078;2023-01-16T08:36:12;2.83;;;1.47;;
11100;SDS011;5604;50.722;7.078;2023-01-16T08:38:42;4.57;;;1.57;;
11100;SDS011;5604;50.722;7.078;2023-01-16T08:41:12;2.57;;;1.37;;
11100;SDS011;5604;50.722;7.078;2023-01-16T08:43:55;1.93;;;1.23;;
11100;SDS011;5604;50.722;7.078;2023-01-16T08:46:41;3.33;;;1.30;;
11100;SDS011;5604;50.722;7.078;2023-01-16T08:49:27;2.47;;;1.27;;
11100;SDS011;5604;50.722;7.078;2023-01-16T08:52:13;1.47;;;1.20;;
11100;SDS011;5604;50.722;7.078;2023-01-16T08:54:41;2.73;;;1.43;;
11100;SDS011;5604;50.722;7.078;2023-01-16T08:57:11;1.87;;;1.30;;
11100;SDS011;5604;50.722;7.078;2023-01-16T08:59:40;4.00;;;1.67;;
11100;SDS011;5604;50.722;7.078;2023-01-16T09:02:08;3.67;;;1.43;;
11100;SDS011;5604;50.722;7.078;2023-01-16T09:04:38;1.40;;;1.30;;
11100;SDS011;5604;50.722;7.078;2023-01-16T09:07:06;2.73;;;1.40;;
11100;SDS011;5604;50.722;7.078;2023-01-16T09:09:35;3.07;;;1.60;;
11100;SDS011;5604;50.722;7.078;2023-01-16T09:12:03;3.60;;;1.70;;
11100;SDS011;5604;50.722;7.078;2023-01-16T09:14:51;2.77;;;1.30;;
11100;SDS011;5604;50.722;7.078;2023-01-16T09:17:21;3.90;;;1.43;;
11100;SDS011;5604;50.722;7.078;2023-01-16T09:19:50;1.30;;;1.10;;
11100;SDS011;5604;50.722;7.078;2023-01-16T09:22:18;5.10;;;1.50;;
11100;SDS011;5604;50.722;7.078;2023-01-16T09:24:47;2.03;;;0.97;;
11100;SDS011;5604;50.722;7.078;2023-01-16T09:27:15;2.70;;;1.20;;
11100;SDS011;5604;50.722;7.078;2023-01-16T09:29:45;1.30;;;1.00;;
11100;SDS011;5604;50.722;7.078;2023-01-16T09:32:15;1.20;;;1.10;;
11100;SDS011;5604;50.722;7.078;2023-01-16T09:34:45;1.87;;;1.03;;
11100;SDS011;5604;50.722;7.078;2023-01-16T09:37:13;3.00;;;1.07;;
11100;SDS011;5604;50.722;7.078;2023-01-16T09:39:41;1.57;;;1.10;;
11100;SDS011;5604;50.722;7.078;2023-01-16T09:45:33;1.20;;;1.10;;
11100;SDS011;5604;50.722;7.078;2023-01-16T09:48:03;0.87;;;0.87;;
11100;SDS011;5604;50.722;7.078;2023-01-16T09:50:38;1.03;;;0.97;;
11100;SDS011;5604;50.722;7.078;2023-01-16T09:53:10;0.90;;;0.90;;
11100;SDS011;5604;50.722;7.078;2023-01-16T09:56:09;1.07;;;0.97;;
11100;SDS011;5604;50.722;7.078;2023-01-16T09:58:57;1.70;;;0.90;;
11100;SDS011;5604;50.722;7.078;2023-01-16T10:01:31;1.23;;;0.80;;
11100;SDS011;5604;50.722;7.078;2023-01-16T10:04:09;1.40;;;0.90;;
11100;SDS011;5604;50.722;7.078;2023-01-16T10:06:46;1.20;;;1.10;;
11100;SDS011;5604;50.722;7.078;2023-01-16T10:09:23;2.13;;;1.10;;
11100;SDS011;5604;50.722;7.078;2023-01-16T10:11:57;2.03;;;1.10;;
11100;SDS011;5604;50.722;7.078;2023-01-16T10:14:39;0.80;;;0.80;;
11100;SDS011;5604;50.722;7.078;2023-01-16T10:17:19;2.67;;;0.87;;
11100;SDS011;5604;50.722;7.078;2023-01-16T10:20:04;1.20;;;1.10;;
11100;SDS011;5604;50.722;7.078;2023-01-16T10:22:44;1.60;;;1.07;;
11100;SDS011;5604;50.722;7.078;2023-01-16T10:25:19;1.00;;;0.83;;
11100;SDS011;5604;50.722;7.078;2023-01-16T10:27:54;0.80;;;0.80;;
11100;SDS011;5604;50.722;7.078;2023-01-16T10:30:29;0.87;;;0.87;;
11100;SDS011;5604;50.722;7.078;2023-01-16T10:33:01;0.80;;;0.80;;
11100;SDS011;5604;50.722;7.078;2023-01-16T10:35:34;0.83;;;0.77;;
11100;SDS011;5604;50.722;7.078;2023-01-16T10:38:12;1.10;;;1.00;;
11100;SDS011;5604;50.722;7.078;2023-01-16T10:40:47;1.07;;;1.00;;
11100;SDS011;5604;50.722;7.078;2023-01-16T10:43:19;0.83;;;0.80;;
11100;SDS011;5604;50.722;7.078;2023-01-16T10:46:10;1.50;;;0.90;;
11100;SDS011;5604;50.722;7.078;2023-01-16T10:49:02;2.00;;;0.97;;
11100;SDS011;5604;50.722;7.078;2023-01-16T10:51:50;1.87;;;0.90;;
11100;SDS011;5604;50.722;7.078;2023-01-16T10:54:18;0.80;;;0.80;;
11100;SDS011;5604;50.722;7.078;2023-01-16T10:56:47;2.53;;;1.00;;
11100;SDS011;5604;50.722;7.078;2023-01-16T10:59:15;0.80;;;0.80;;
11100;SDS011;5604;50.722;7.078;2023-01-16T11:01:44;0.90;;;0.90;;
11100;SDS011;5604;50.722;7.078;2023-01-16T11:04:16;1.17;;;1.10;;
11100;SDS011;5604;50.722;7.078;2023-01-16T11:06:46;0.73;;;0.73;;
11100;SDS011;5604;50.722;7.078;2023-01-16T11:09:18;1.40;;;0.90;;
11100;SDS011;5604;50.722;7.078;2023-01-16T11:11:49;2.10;;;1.70;;
11100;SDS011;5604;50.722;7.078;2023-01-16T11:14:36;1.00;;;1.00;;
11100;SDS011;5604;50.722;7.078;2023-01-16T11:17:25;0.90;;;0.90;;
11100;SDS011;5604;50.722;7.078;2023-01-16T11:20:13;1.47;;;1.10;;
11100;SDS011;5604;50.722;7.078;2023-01-16T11:22:44;1.23;;;0.90;;
11100;SDS011;5604;50.722;7.078;2023-01-16T11:25:16;1.10;;;1.00;;
11100;SDS011;5604;50.722;7.078;2023-01-16T11:27:47;1.67;;;0.83;;
11100;SDS011;5604;50.722;7.078;2023-01-16T11:30:18;0.83;;;0.83;;
11100;SDS011;5604;50.722;7.078;2023-01-16T11:32:48;0.83;;;0.83;;
11100;SDS011;5604;50.722;7.078;2023-01-16T11:35:18;0.87;;;0.87;;
11100;SDS011;5604;50.722;7.078;2023-01-16T11:37:48;1.00;;;1.00;;
11100;SDS011;5604;50.722;7.078;2023-01-16T11:40:20;1.70;;;1.00;;
11100;SDS011;5604;50.722;7.078;2023-01-16T11:42:55;1.10;;;1.00;;
11100;SDS011;5604;50.722;7.078;2023-01-16T11:45:43;0.80;;;0.80;;
11100;SDS011;5604;50.722;7.078;2023-01-16T11:48:38;1.07;;;0.97;;
11100;SDS011;5604;50.722;7.078;2023-01-16T11:51:11;0.97;;;0.90;;
11100;SDS011;5604;50.722;7.078;2023-01-16T11:53:42;0.97;;;0.97;;
11100;SDS011;5604;50.722;7.078;2023-01-16T11:56:17;0.80;;;0.80;;
11100;SDS011;5604;50.722;7.078;2023-01-16T12:02:11;1.17;;;0.90;;
11100;SDS011;5604;50.722;7.078;2023-01-16T12:04:49;1.60;;;1.40;;
11100;SDS011;5604;50.722;7.078;2023-01-16T12:07:40;2.57;;;1.17;;
11100;SDS011;5604;50.722;7.078;2023-01-16T12:10:23;1.43;;;1.20;;
11100;SDS011;5604;50.722;7.078;2023-01-16T12:12:58;3.00;;;1.30;;
11100;SDS011;5604;50.722;7.078;2023-01-16T12:15:51;1.57;;;1.10;;
11100;SDS011;5604;50.722;7.078;2023-01-16T12:18:28;1.10;;;1.10;;
11100;SDS011;5604;50.722;7.078;2023-01-16T12:21:00;3.07;;;1.43;;
11100;SDS011;5604;50.722;7.078;2023-01-16T12:26:24;1.73;;;1.30;;
11100;SDS011;5604;50.722;7.078;2023-01-16T12:28:59;2.20;;;1.30;;
11100;SDS011;5604;50.722;7.078;2023-01-16T12:31:41;1.37;;;1.27;;
11100;SDS011;5604;50.722;7.078;2023-01-16T12:34:22;3.57;;;1.63;;
11100;SDS011;5604;50.722;7.078;2023-01-16T12:39:57;1.73;;;1.20;;
11100;SDS011;5604;50.722;7.078;2023-01-16T12:42:34;2.40;;;1.30;;
11100;SDS011;5604;50.722;7.078;2023-01-16T12:45:30;1.60;;;1.50;;
11100;SDS011;5604;50.722;7.078;2023-01-16T12:48:10;1.90;;;1.60;;
11100;SDS011;5604;50.722;7.078;2023-01-16T12:50:54;3.10;;;1.20;;
11100;SDS011;5604;50.722;7.078;2023-01-16T12:53:36;2.20;;;1.47;;
11100;SDS011;5604;50.722;7.078;2023-01-16T12:56:17;2.83;;;1.30;;
11100;SDS011;5604;50.722;7.078;2023-01-16T12:58:57;2.93;;;1.37;;
11100;SDS011;5604;50.722;7.078;2023-01-16T13:01:30;1.67;;;1.37;;
11100;SDS011;5604;50.722;7.078;2023-01-16T13:04:02;1.37;;;1.20;;
11100;SDS011;5604;50.722;7.078;2023-01-16T13:06:42;1.50;;;1.40;;
11100;SDS011;5604;50.722;7.078;2023-01-16T13:09:14;2.07;;;1.50;;
11100;SDS011;5604;50.722;7.078;2023-01-16T13:11:57;1.27;;;1.10;;
11100;SDS011;5604;50.722;7.078;2023-01-16T13:14:47;1.00;;;1.00;;
11100;SDS011;5604;50.722;7.078;2023-01-16T13:17:21;0.97;;;0.97;;
11100;SDS011;5604;50.722;7.078;2023-01-16T13:19:57;2.13;;;1.37;;
11100;SDS011;5604;50.722;7.078;2023-01-16T13:22:30;1.00;;;1.00;;
11100;SDS011;5604;50.722;7.078;2023-01-16T13:25:04;1.20;;;1.10;;
11100;SDS011;5604;50.722;7.078;2023-01-16T13:27:36;1.17;;;0.97;;
11100;SDS011;5604;50.722;7.078;2023-01-16T13:30:08;1.63;;;0.90;;
11100;SDS011;5604;50.722;7.078;2023-01-16T13:32:43;4.03;;;2.03;;
11100;SDS011;5604;50.722;7.078;2023-01-16T13:35:15;1.20;;;1.10;;
11100;SDS011;5604;50.722;7.078;2023-01-16T13:37:58;2.87;;;0.93;;
11100;SDS011;5604;50.722;7.078;2023-01-16T13:40:56;0.90;;;0.90;;
11100;SDS011;5604;50.722;7.078;2023-01-16T13:43:38;1.77;;;0.93;;
11100;SDS011;5604;50.722;7.078;2023-01-16T13:46:25;0.80;;;0.80;;
11100;SDS011;5604;50.722;7.078;2023-01-16T13:48:56;1.10;;;1.00;;
11100;SDS011;5604;50.722;7.078;2023-01-16T13:51:26;2.13;;;1.13;;
11100;SDS011;5604;50.722;7.078;2023-01-16T13:53:55;2.13;;;0.97;;
11100;SDS011;5604;50.722;7.078;2023-01-16T13:56:26;1.63;;;1.13;;
11100;SDS011;5604;50.722;7.078;2023-01-16T13:58:58;1.20;;;1.10;;
11100;SDS011;5604;50.722;7.078;2023-01-16T14:01:33;1.23;;;0.93;;
11100;SDS011;5604;50.722;7.078;2023-01-16T14:04:24;1.03;;;1.00;;
11100;SDS011;5604;50.722;7.078;2023-01-16T14:10:39;2.20;;;1.00;;
11100;SDS011;5604;50.722;7.078;2023-01-16T14:13:14;1.00;;;1.00;;
11100;SDS011;5604;50.722;7.078;2023-01-16T14:15:50;0.90;;;0.90;;
11100;SDS011;5604;50.722;7.078;2023-01-16T14:18:42;1.57;;;1.20;;
11100;SDS011;5604;50.722;7.078;2023-01-16T14:21:46;1.10;;;1.00;;
11100;SDS011;5604;50.722;7.078;2023-01-16T14:25:02;0.90;;;0.90;;
11100;SDS011;5604;50.722;7.078;2023-01-16T14:27:38;1.03;;;1.03;;
11100;SDS011;5604;50.722;7.078;2023-01-16T14:33:53;1.00;;;1.00;;
11100;SDS011;5604;50.722;7.078;2023-01-16T14:37:05;1.80;;;0.90;;
11100;SDS011;5604;50.722;7.078;2023-01-16T14:40:04;1.00;;;1.00;;
11100;SDS011;5604;50.722;7.078;2023-01-16T14:43:42;1.10;;;1.00;;
11100;SDS011;5604;50.722;7.078;2023-01-16T14:47:29;2.00;;;1.17;;
11100;SDS011;5604;50.722;7.078;2023-01-16T14:51:17;2.10;;;1.27;;
11100;SDS011;5604;50.722;7.078;2023-01-16T14:54:21;1.60;;;1.30;;
11100;SDS011;5604;50.722;7.078;2023-01-16T14:57:25;1.80;;;1.30;;
11100;SDS011;5604;50.722;7.078;2023-01-16T14:59:59;1.57;;;1.20;;
11100;SDS011;5604;50.722;7.078;2023-01-16T15:02:34;2.33;;;1.00;;
11100;SDS011;5604;50.722;7.078;2023-01-16T15:05:06;1.10;;;1.10;;
11100;SDS011;5604;50.722;7.078;2023-01-16T15:07:43;1.00;;;1.00;;
11100;SDS011;5604;50.722;7.078;2023-01-16T15:10:15;2.40;;;1.20;;
11100;SDS011;5604;50.722;7.078;2023-01-16T15:12:47;1.30;;;1.20;;
11100;SDS011;5604;50.722;7.078;2023-01-16T15:15:19;1.43;;;1.00;;
11100;SDS011;5604;50.722;7.078;2023-01-16T15:18:12;2.20;;;1.30;;
11100;SDS011;5604;50.722;7.078;2023-01-16T15:21:02;1.40;;;1.30;;
11100;SDS011;5604;50.722;7.078;2023-01-16T15:24:02;1.57;;;1.30;;
11100;SDS011;5604;50.722;7.078;2023-01-16T15:26:48;1.70;;;0.90;;
11100;SDS011;5604;50.722;7.078;2023-01-16T15:29:23;1.73;;;0.90;;
11100;SDS011;5604;50.722;7.078;2023-01-16T15:32:02;1.10;;;1.10;;
11100;SDS011;5604;50.722;7.078;2023-01-16T15:34:32;0.80;;;0.80;;
11100;SDS011;5604;50.722;7.078;2023-01-16T15:37:04;1.10;;;1.00;;
11100;SDS011;5604;50.722;7.078;2023-01-16T15:39:46;0.80;;;0.80;;
11100;SDS011;5604;50.722;7.078;2023-01-16T15:42:19;0.93;;;0.93;;
11100;SDS011;5604;50.722;7.078;2023-01-16T15:45:15;1.00;;;1.00;;
11100;SDS011;5604;50.722;7.078;2023-01-16T15:50:53;1.00;;;1.00;;
11100;SDS011;5604;50.722;7.078;2023-01-16T15:53:24;0.70;;;0.70;;
11100;SDS011;5604;50.722;7.078;2023-01-16T15:56:00;0.97;;;0.97;;
11100;SDS011;5604;50.722;7.078;2023-01-16T15:58:31;1.00;;;1.00;;
11100;SDS011;5604;50.722;7.078;2023-01-16T16:01:05;0.80;;;0.80;;
11100;SDS011;5604;50.722;7.078;2023-01-16T16:03:36;1.00;;;1.00;;
11100;SDS011;5604;50.722;7.078;2023-01-16T16:06:06;0.97;;;0.97;;
11100;SDS011;5604;50.722;7.078;2023-01-16T16:08:38;0.70;;;0.70;;
11100;SDS011;5604;50.722;7.078;2023-01-16T16:11:07;0.80;;;0.80;;